sensor_id;sensor_type;location;lat;lon;timestamp;P1;durP1;ratioP1;P2;durP2;ratioP2
417;SDS011;49;48.530;9.200;2024-03-02T00:01:36;15.20;;;11.00;;
417;SDS011;49;48.530;9.200;2024-03-02T00:04:06;27.10;;;16.93;;
417;SDS011;49;48.530;9.200;2024-03-02T00:06:34;31.63;;;17.93;;
417;SDS011;49;48.530;9.200;2024-03-02T00:09:03;25.60;;;15.27;;
417;SDS011;49;48.530;9.200;2024-03-02T00:11:31;29.60;;;17.37;;
417;SDS011;49;48.530;9.200;2024-03-02T00:14:03;22.60;;;14.20;;
417;SDS011;49;48.530;9.200;2024-03-02T00:16:30;21.27;;;12.87;;
417;SDS011;49;48.530;9.200;2024-03-02T00:19:01;21.47;;;14.10;;
417;SDS011;49;48.530;9.200;2024-03-02T00:21:30;21.33;;;9.97;;
417;SDS011;49;48.530;9.200;2024-03-02T00:23:57;18.80;;;11.97;;
417;SDS011;49;48.530;9.200;2024-03-02T00:26:26;16.67;;;12.10;;
417;SDS011;49;48.530;9.200;2024-03-02T00:28:53;19.60;;;13.60;;
417;SDS011;49;48.530;9.200;2024-03-02T00:31:22;14.97;;;8.63;;
417;SDS011;49;48.530;9.200;2024-03-02T00:33:50;14.47;;;8.87;;
417;SDS011;49;48.530;9.200;2024-03-02T00:36:21;17.73;;;10.90;;
417;SDS011;49;48.530;9.200;2024-03-02T00:38:53;22.97;;;12.40;;
417;SDS011;49;48.530;9.200;2024-03-02T00:41:22;19.27;;;12.80;;
417;SDS011;49;48.530;9.200;2024-03-02T00:43:57;16.07;;;11.63;;
417;SDS011;49;48.530;9.200;2024-03-02T00:46:26;22.63;;;12.90;;
417;SDS011;49;48.530;9.200;2024-03-02T00:48:57;17.53;;;11.97;;
417;SDS011;49;48.530;9.200;2024-03-02T00:51:25;14.40;;;10.10;;
417;SDS011;49;48.530;9.200;2024-03-02T00:53:55;15.63;;;10.70;;
417;SDS011;49;48.530;9.200;2024-03-02T00:56:25;14.53;;;10.03;;
417;SDS011;49;48.530;9.200;2024-03-02T00:58:52;16.97;;;10.70;;
417;SDS011;49;48.530;9.200;2024-03-02T01:01:19;17.77;;;11.50;;
417;SDS011;49;48.530;9.200;2024-03-02T01:03:46;12.70;;;8.73;;
417;SDS011;49;48.530;9.200;2024-03-02T01:06:14;23.20;;;13.00;;
417;SDS011;49;48.530;9.200;2024-03-02T01:08:42;14.93;;;10.97;;
417;SDS011;49;48.530;9.200;2024-03-02T01:11:10;10.40;;;7.80;;
417;SDS011;49;48.530;9.200;2024-03-02T01:13:38;14.50;;;8.83;;
417;SDS011;49;48.530;9.200;2024-03-02T01:16:05;12.83;;;9.60;;
417;SDS011;49;48.530;9.200;2024-03-02T01:18:32;14.37;;;9.87;;
417;SDS011;49;48.530;9.200;2024-03-02T01:20:59;18.53;;;11.17;;
417;SDS011;49;48.530;9.200;2024-03-02T01:23:27;21.57;;;12.40;;
417;SDS011;49;48.530;9.200;2024-03-02T01:25:54;14.17;;;9.97;;
417;SDS011;49;48.530;9.200;2024-03-02T01:28:25;27.20;;;12.50;;
417;SDS011;49;48.530;9.200;2024-03-02T01:30:52;19.17;;;13.03;;
417;SDS011;49;48.530;9.200;2024-03-02T01:33:20;16.13;;;9.40;;
417;SDS011;49;48.530;9.200;2024-03-02T01:35:49;14.03;;;9.73;;
417;SDS011;49;48.530;9.200;2024-03-02T01:38:17;19.73;;;12.30;;
417;SDS011;49;48.530;9.200;2024-03-02T01:40:44;20.93;;;12.10;;
417;SDS011;49;48.530;9.200;2024-03-02T01:43:11;20.17;;;12.97;;
417;SDS011;49;48.530;9.200;2024-03-02T01:45:41;19.43;;;12.90;;
417;SDS011;49;48.530;9.200;2024-03-02T01:48:08;16.77;;;11.97;;
417;SDS011;49;48.530;9.200;2024-03-02T01:50:37;14.87;;;9.80;;
417;SDS011;49;48.530;9.200;2024-03-02T01:53:04;17.10;;;12.03;;
417;SDS011;49;48.530;9.200;2024-03-02T01:55:31;20.37;;;12.47;;
417;SDS011;49;48.530;9.200;2024-03-02T01:57:59;16.20;;;9.87;;
417;SDS011;49;48.530;9.200;2024-03-02T02:00:29;16.83;;;10.03;;
417;SDS011;49;48.530;9.200;2024-03-02T02:02:59;14.70;;;10.40;;
417;SDS011;49;48.530;9.200;2024-03-02T02:05:26;17.67;;;11.67;;
417;SDS011;49;48.530;9.200;2024-03-02T02:07:53;15.33;;;9.83;;
417;SDS011;49;48.530;9.200;2024-03-02T02:10:20;17.53;;;10.97;;
417;SDS011;49;48.530;9.200;2024-03-02T02:12:47;13.47;;;8.57;;
417;SDS011;49;48.530;9.200;2024-03-02T02:15:26;17.77;;;9.33;;
417;SDS011;49;48.530;9.200;2024-03-02T02:17:54;15.40;;;10.13;;
417;SDS011;49;48.530;9.200;2024-03-02T02:20:23;11.70;;;8.20;;
417;SDS011;49;48.530;9.200;2024-03-02T02:22:56;10.53;;;7.90;;
417;SDS011;49;48.530;9.200;2024-03-02T02:25:24;21.50;;;12.13;;
417;SDS011;49;48.530;9.200;2024-03-02T02:27:52;13.73;;;9.10;;
417;SDS011;49;48.530;9.200;2024-03-02T02:30:21;18.07;;;9.30;;
417;SDS011;49;48.530;9.200;2024-03-02T02:32:49;20.00;;;13.27;;
417;SDS011;49;48.530;9.200;2024-03-02T02:35:19;17.23;;;11.40;;
417;SDS011;49;48.530;9.200;2024-03-02T02:37:49;19.00;;;11.70;;
417;SDS011;49;48.530;9.200;2024-03-02T02:40:18;14.50;;;10.03;;
417;SDS011;49;48.530;9.200;2024-03-02T02:42:45;14.27;;;8.30;;
417;SDS011;49;48.530;9.200;2024-03-02T02:45:12;17.23;;;11.10;;
417;SDS011;49;48.530;9.200;2024-03-02T02:47:39;19.27;;;13.33;;
417;SDS011;49;48.530;9.200;2024-03-02T02:50:07;15.33;;;10.50;;
417;SDS011;49;48.530;9.200;2024-03-02T02:52:35;12.73;;;7.40;;
417;SDS011;49;48.530;9.200;2024-03-02T02:55:04;15.40;;;10.70;;
417;SDS011;49;48.530;9.200;2024-03-02T02:57:34;24.47;;;11.47;;
417;SDS011;49;48.530;9.200;2024-03-02T03:00:07;16.47;;;9.37;;
417;SDS011;49;48.530;9.200;2024-03-02T03:02:39;13.70;;;8.90;;
417;SDS011;49;48.530;9.200;2024-03-02T03:05:08;16.70;;;11.27;;
417;SDS011;49;48.530;9.200;2024-03-02T03:07:35;13.40;;;8.70;;
417;SDS011;49;48.530;9.200;2024-03-02T03:10:05;18.07;;;11.30;;
417;SDS011;49;48.530;9.200;2024-03-02T03:12:32;21.77;;;13.33;;
417;SDS011;49;48.530;9.200;2024-03-02T03:15:01;21.33;;;12.40;;
417;SDS011;49;48.530;9.200;2024-03-02T03:17:29;14.80;;;9.80;;
417;SDS011;49;48.530;9.200;2024-03-02T03:19:56;18.53;;;10.90;;
417;SDS011;49;48.530;9.200;2024-03-02T03:22:26;11.30;;;7.63;;
417;SDS011;49;48.530;9.200;2024-03-02T03:24:53;14.90;;;11.37;;
417;SDS011;49;48.530;9.200;2024-03-02T03:27:20;15.80;;;9.77;;
417;SDS011;49;48.530;9.200;2024-03-02T03:29:49;17.80;;;10.80;;
417;SDS011;49;48.530;9.200;2024-03-02T03:32:15;16.90;;;10.90;;
417;SDS011;49;48.530;9.200;2024-03-02T03:34:43;14.70;;;10.17;;
417;SDS011;49;48.530;9.200;2024-03-02T03:37:10;13.77;;;8.90;;
417;SDS011;49;48.530;9.200;2024-03-02T03:39:37;14.20;;;9.07;;
417;SDS011;49;48.530;9.200;2024-03-02T03:42:05;12.13;;;7.80;;
417;SDS011;49;48.530;9.200;2024-03-02T03:44:32;13.33;;;9.33;;
417;SDS011;49;48.530;9.200;2024-03-02T03:47:01;11.43;;;7.70;;
417;SDS011;49;48.530;9.200;2024-03-02T03:49:28;11.20;;;7.43;;
417;SDS011;49;48.530;9.200;2024-03-02T03:51:55;12.23;;;8.37;;
417;SDS011;49;48.530;9.200;2024-03-02T03:54:22;12.57;;;8.03;;
417;SDS011;49;48.530;9.200;2024-03-02T03:56:49;12.97;;;8.40;;
417;SDS011;49;48.530;9.200;2024-03-02T03:59:16;17.03;;;9.33;;
417;SDS011;49;48.530;9.200;2024-03-02T04:01:43;14.57;;;8.40;;
417;SDS011;49;48.530;9.200;2024-03-02T04:04:12;10.13;;;7.67;;
417;SDS011;49;48.530;9.200;2024-03-02T04:06:39;14.57;;;7.10;;
417;SDS011;49;48.530;9.200;2024-03-02T04:09:06;16.37;;;10.50;;
417;SDS011;49;48.530;9.200;2024-03-02T04:11:33;17.20;;;10.20;;
417;SDS011;49;48.530;9.200;2024-03-02T04:14:00;12.33;;;8.47;;
417;SDS011;49;48.530;9.200;2024-03-02T04:16:27;14.10;;;8.97;;
417;SDS011;49;48.530;9.200;2024-03-02T04:18:55;9.90;;;7.70;;
417;SDS011;49;48.530;9.200;2024-03-02T04:21:23;16.27;;;9.80;;
417;SDS011;49;48.530;9.200;2024-03-02T04:23:50;13.03;;;9.70;;
417;SDS011;49;48.530;9.200;2024-03-02T04:26:17;14.67;;;9.17;;
417;SDS011;49;48.530;9.200;2024-03-02T04:28:47;10.53;;;7.50;;
417;SDS011;49;48.530;9.200;2024-03-02T04:31:15;17.00;;;10.40;;
417;SDS011;49;48.530;9.200;2024-03-02T04:33:42;17.70;;;10.70;;
417;SDS011;49;48.530;9.200;2024-03-02T04:36:09;12.63;;;9.13;;
417;SDS011;49;48.530;9.200;2024-03-02T04:38:38;14.93;;;10.70;;
417;SDS011;49;48.530;9.200;2024-03-02T04:41:05;13.53;;;9.50;;
417;SDS011;49;48.530;9.200;2024-03-02T04:43:32;15.23;;;9.00;;
417;SDS011;49;48.530;9.200;2024-03-02T04:46:00;16.80;;;9.90;;
417;SDS011;49;48.530;9.200;2024-03-02T04:48:27;15.23;;;9.97;;
417;SDS011;49;48.530;9.200;2024-03-02T04:50:54;15.50;;;10.70;;
417;SDS011;49;48.530;9.200;2024-03-02T04:53:21;20.67;;;11.40;;
417;SDS011;49;48.530;9.200;2024-03-02T04:55:49;16.57;;;10.20;;
417;SDS011;49;48.530;9.200;2024-03-02T04:58:44;11.70;;;7.90;;
417;SDS011;49;48.530;9.200;2024-03-02T05:01:11;14.30;;;10.40;;
417;SDS011;49;48.530;9.200;2024-03-02T05:03:38;13.50;;;9.07;;
417;SDS011;49;48.530;9.200;2024-03-02T05:06:05;10.07;;;7.57;;
417;SDS011;49;48.530;9.200;2024-03-02T05:08:33;13.00;;;8.80;;
417;SDS011;49;48.530;9.200;2024-03-02T05:11:02;14.90;;;9.70;;
417;SDS011;49;48.530;9.200;2024-03-02T05:13:43;15.10;;;10.67;;
417;SDS011;49;48.530;9.200;2024-03-02T05:16:10;16.67;;;10.30;;
417;SDS011;49;48.530;9.200;2024-03-02T05:18:37;13.73;;;9.20;;
417;SDS011;49;48.530;9.200;2024-03-02T05:21:04;14.50;;;9.73;;
417;SDS011;49;48.530;9.200;2024-03-02T05:23:32;17.93;;;11.10;;
417;SDS011;49;48.530;9.200;2024-03-02T05:25:59;15.67;;;10.20;;
417;SDS011;49;48.530;9.200;2024-03-02T05:28:28;13.30;;;9.60;;
417;SDS011;49;48.530;9.200;2024-03-02T05:30:55;13.20;;;9.00;;
417;SDS011;49;48.530;9.200;2024-03-02T05:33:22;9.27;;;7.60;;
417;SDS011;49;48.530;9.200;2024-03-02T05:35:49;13.27;;;8.30;;
417;SDS011;49;48.530;9.200;2024-03-02T05:38:24;16.20;;;11.97;;
417;SDS011;49;48.530;9.200;2024-03-02T05:40:51;15.67;;;9.97;;
417;SDS011;49;48.530;9.200;2024-03-02T05:43:19;20.13;;;9.70;;
417;SDS011;49;48.530;9.200;2024-03-02T05:45:46;13.43;;;9.10;;
417;SDS011;49;48.530;9.200;2024-03-02T05:48:14;26.83;;;10.30;;
417;SDS011;49;48.530;9.200;2024-03-02T05:50:41;10.90;;;8.13;;
417;SDS011;49;48.530;9.200;2024-03-02T05:53:11;13.70;;;9.20;;
417;SDS011;49;48.530;9.200;2024-03-02T05:55:43;22.13;;;9.50;;
417;SDS011;49;48.530;9.200;2024-03-02T05:58:10;17.60;;;11.67;;
417;SDS011;49;48.530;9.200;2024-03-02T06:00:54;13.93;;;9.97;;
417;SDS011;49;48.530;9.200;2024-03-02T06:03:22;12.70;;;8.07;;
417;SDS011;49;48.530;9.200;2024-03-02T06:05:49;16.17;;;7.50;;
417;SDS011;49;48.530;9.200;2024-03-02T06:08:16;11.77;;;7.13;;
417;SDS011;49;48.530;9.200;2024-03-02T06:10:46;14.70;;;9.30;;
417;SDS011;49;48.530;9.200;2024-03-02T06:13:14;12.47;;;7.20;;
417;SDS011;49;48.530;9.200;2024-03-02T06:15:41;23.00;;;9.37;;
417;SDS011;49;48.530;9.200;2024-03-02T06:18:10;19.33;;;12.67;;
417;SDS011;49;48.530;9.200;2024-03-02T06:20:37;15.47;;;10.30;;
417;SDS011;49;48.530;9.200;2024-03-02T06:23:09;17.93;;;11.00;;
417;SDS011;49;48.530;9.200;2024-03-02T06:25:36;12.10;;;9.00;;
417;SDS011;49;48.530;9.200;2024-03-02T06:28:03;10.90;;;7.30;;
417;SDS011;49;48.530;9.200;2024-03-02T06:30:31;16.40;;;9.90;;
417;SDS011;49;48.530;9.200;2024-03-02T06:32:58;16.50;;;11.20;;
417;SDS011;49;48.530;9.200;2024-03-02T06:35:26;19.00;;;11.27;;
417;SDS011;49;48.530;9.200;2024-03-02T06:37:53;16.30;;;10.80;;
417;SDS011;49;48.530;9.200;2024-03-02T06:40:23;13.40;;;9.80;;
417;SDS011;49;48.530;9.200;2024-03-02T06:42:50;13.93;;;10.03;;
417;SDS011;49;48.530;9.200;2024-03-02T06:45:17;15.60;;;10.27;;
417;SDS011;49;48.530;9.200;2024-03-02T06:47:44;18.40;;;11.87;;
417;SDS011;49;48.530;9.200;2024-03-02T06:50:11;15.67;;;10.20;;
417;SDS011;49;48.530;9.200;2024-03-02T06:52:40;16.17;;;11.57;;
417;SDS011;49;48.530;9.200;2024-03-02T06:55:07;15.40;;;10.53;;
417;SDS011;49;48.530;9.200;2024-03-02T06:57:34;16.60;;;11.60;;
417;SDS011;49;48.530;9.200;2024-03-02T07:00:01;18.67;;;11.03;;
417;SDS011;49;48.530;9.200;2024-03-02T07:02:30;17.37;;;11.77;;
417;SDS011;49;48.530;9.200;2024-03-02T07:04:57;15.27;;;10.50;;
417;SDS011;49;48.530;9.200;2024-03-02T07:07:24;16.73;;;11.27;;
417;SDS011;49;48.530;9.200;2024-03-02T07:09:53;13.70;;;10.20;;
417;SDS011;49;48.530;9.200;2024-03-02T07:12:20;20.27;;;11.17;;
417;SDS011;49;48.530;9.200;2024-03-02T07:14:47;24.83;;;10.93;;
417;SDS011;49;48.530;9.200;2024-03-02T07:17:33;15.70;;;10.20;;
417;SDS011;49;48.530;9.200;2024-03-02T07:20:02;14.60;;;10.57;;
417;SDS011;49;48.530;9.200;2024-03-02T07:22:31;15.60;;;11.17;;
417;SDS011;49;48.530;9.200;2024-03-02T07:25:00;14.50;;;11.00;;
417;SDS011;49;48.530;9.200;2024-03-02T07:27:28;13.80;;;11.10;;
417;SDS011;49;48.530;9.200;2024-03-02T07:29:55;17.40;;;9.37;;
417;SDS011;49;48.530;9.200;2024-03-02T07:32:22;15.27;;;11.17;;
417;SDS011;49;48.530;9.200;2024-03-02T07:34:49;16.70;;;10.90;;
417;SDS011;49;48.530;9.200;2024-03-02T07:37:16;15.00;;;9.17;;
417;SDS011;49;48.530;9.200;2024-03-02T07:39:46;22.07;;;10.47;;
417;SDS011;49;48.530;9.200;2024-03-02T07:42:14;13.93;;;10.30;;
417;SDS011;49;48.530;9.200;2024-03-02T07:44:43;15.77;;;10.53;;
417;SDS011;49;48.530;9.200;2024-03-02T07:47:10;15.07;;;9.53;;
417;SDS011;49;48.530;9.200;2024-03-02T07:49:39;11.70;;;9.03;;
417;SDS011;49;48.530;9.200;2024-03-02T07:52:08;26.80;;;14.47;;
417;SDS011;49;48.530;9.200;2024-03-02T07:54:35;14.53;;;10.23;;
417;SDS011;49;48.530;9.200;2024-03-02T07:57:02;43.33;;;27.97;;
417;SDS011;49;48.530;9.200;2024-03-02T07:59:32;32.07;;;21.00;;
417;SDS011;49;48.530;9.200;2024-03-02T08:02:00;29.97;;;20.37;;
417;SDS011;49;48.530;9.200;2024-03-02T08:04:29;60.50;;;33.67;;
417;SDS011;49;48.530;9.200;2024-03-02T08:06:57;23.37;;;12.63;;
417;SDS011;49;48.530;9.200;2024-03-02T08:09:24;17.20;;;12.00;;
417;SDS011;49;48.530;9.200;2024-03-02T08:11:55;17.50;;;12.17;;
417;SDS011;49;48.530;9.200;2024-03-02T08:14:23;22.10;;;12.33;;
417;SDS011;49;48.530;9.200;2024-03-02T08:16:52;23.90;;;15.10;;
417;SDS011;49;48.530;9.200;2024-03-02T08:19:19;16.90;;;11.87;;
417;SDS011;49;48.530;9.200;2024-03-02T08:21:46;16.83;;;11.10;;
417;SDS011;49;48.530;9.200;2024-03-02T08:24:13;14.90;;;10.70;;
417;SDS011;49;48.530;9.200;2024-03-02T08:26:41;22.43;;;11.20;;
417;SDS011;49;48.530;9.200;2024-03-02T08:29:09;14.13;;;9.53;;
417;SDS011;49;48.530;9.200;2024-03-02T08:31:37;16.03;;;10.27;;
417;SDS011;49;48.530;9.200;2024-03-02T08:34:05;12.60;;;9.90;;
417;SDS011;49;48.530;9.200;2024-03-02T08:36:34;11.53;;;8.90;;
417;SDS011;49;48.530;9.200;2024-03-02T08:39:01;23.73;;;10.40;;
417;SDS011;49;48.530;9.200;2024-03-02T08:41:28;15.27;;;10.23;;
417;SDS011;49;48.530;9.200;2024-03-02T08:43:55;13.73;;;10.47;;
417;SDS011;49;48.530;9.200;2024-03-02T08:46:22;13.27;;;10.30;;
417;SDS011;49;48.530;9.200;2024-03-02T08:48:50;13.37;;;9.03;;
417;SDS011;49;48.530;9.200;2024-03-02T08:51:19;14.10;;;10.23;;
417;SDS011;49;48.530;9.200;2024-03-02T08:53:46;13.83;;;9.07;;
417;SDS011;49;48.530;9.200;2024-03-02T08:56:13;14.47;;;9.60;;
417;SDS011;49;48.530;9.200;2024-03-02T08:58:41;17.80;;;10.70;;
417;SDS011;49;48.530;9.200;2024-03-02T09:01:08;15.10;;;11.80;;
417;SDS011;49;48.530;9.200;2024-03-02T09:03:35;14.23;;;10.67;;
417;SDS011;49;48.530;9.200;2024-03-02T09:06:03;16.87;;;11.50;;
417;SDS011;49;48.530;9.200;2024-03-02T09:08:32;18.50;;;12.33;;
417;SDS011;49;48.530;9.200;2024-03-02T09:11:01;17.20;;;10.90;;
417;SDS011;49;48.530;9.200;2024-03-02T09:13:28;19.93;;;13.17;;
417;SDS011;49;48.530;9.200;2024-03-02T09:15:55;23.40;;;16.57;;
417;SDS011;49;48.530;9.200;2024-03-02T09:18:22;18.00;;;13.50;;
417;SDS011;49;48.530;9.200;2024-03-02T09:20:50;14.97;;;11.50;;
417;SDS011;49;48.530;9.200;2024-03-02T09:23:17;14.33;;;10.07;;
417;SDS011;49;48.530;9.200;2024-03-02T09:25:46;14.33;;;10.30;;
417;SDS011;49;48.530;9.200;2024-03-02T09:28:13;16.40;;;9.83;;
417;SDS011;49;48.530;9.200;2024-03-02T09:30:41;14.80;;;10.03;;
417;SDS011;49;48.530;9.200;2024-03-02T09:33:08;14.00;;;9.30;;
417;SDS011;49;48.530;9.200;2024-03-02T09:35:35;12.20;;;10.17;;
417;SDS011;49;48.530;9.200;2024-03-02T09:38:02;14.37;;;11.00;;
417;SDS011;49;48.530;9.200;2024-03-02T09:40:30;10.93;;;8.00;;
417;SDS011;49;48.530;9.200;2024-03-02T09:43:00;11.00;;;8.50;;
417;SDS011;49;48.530;9.200;2024-03-02T09:45:28;20.23;;;8.60;;
417;SDS011;49;48.530;9.200;2024-03-02T09:47:56;12.90;;;9.33;;
417;SDS011;49;48.530;9.200;2024-03-02T09:50:23;11.73;;;8.53;;
417;SDS011;49;48.530;9.200;2024-03-02T09:52:50;12.90;;;8.60;;
417;SDS011;49;48.530;9.200;2024-03-02T09:55:19;11.63;;;7.97;;
417;SDS011;49;48.530;9.200;2024-03-02T09:57:47;16.03;;;10.60;;
417;SDS011;49;48.530;9.200;2024-03-02T10:00:17;11.93;;;8.77;;
417;SDS011;49;48.530;9.200;2024-03-02T10:02:44;14.50;;;9.30;;
417;SDS011;49;48.530;9.200;2024-03-02T10:05:22;14.50;;;9.23;;
417;SDS011;49;48.530;9.200;2024-03-02T10:07:55;10.60;;;8.23;;
417;SDS011;49;48.530;9.200;2024-03-02T10:10:26;13.37;;;9.20;;
417;SDS011;49;48.530;9.200;2024-03-02T10:13:05;10.03;;;7.90;;
417;SDS011;49;48.530;9.200;2024-03-02T10:15:35;12.70;;;9.70;;
417;SDS011;49;48.530;9.200;2024-03-02T10:18:03;15.47;;;11.20;;
417;SDS011;49;48.530;9.200;2024-03-02T10:20:30;13.33;;;9.60;;
417;SDS011;49;48.530;9.200;2024-03-02T10:23:09;13.23;;;9.47;;
417;SDS011;49;48.530;9.200;2024-03-02T10:25:39;11.63;;;8.77;;
417;SDS011;49;48.530;9.200;2024-03-02T10:28:06;10.77;;;7.93;;
417;SDS011;49;48.530;9.200;2024-03-02T10:30:36;12.33;;;9.20;;
417;SDS011;49;48.530;9.200;2024-03-02T10:33:05;11.93;;;9.03;;
417;SDS011;49;48.530;9.200;2024-03-02T10:35:32;12.20;;;9.30;;
417;SDS011;49;48.530;9.200;2024-03-02T10:38:01;11.03;;;8.70;;
417;SDS011;49;48.530;9.200;2024-03-02T10:40:31;13.03;;;9.57;;
417;SDS011;49;48.530;9.200;2024-03-02T10:42:58;12.63;;;8.90;;
417;SDS011;49;48.530;9.200;2024-03-02T10:45:28;17.47;;;11.30;;
417;SDS011;49;48.530;9.200;2024-03-02T10:47:57;14.93;;;9.97;;
417;SDS011;49;48.530;9.200;2024-03-02T10:50:24;12.70;;;7.97;;
417;SDS011;49;48.530;9.200;2024-03-02T10:52:51;13.53;;;9.60;;
417;SDS011;49;48.530;9.200;2024-03-02T10:55:18;12.60;;;8.97;;
417;SDS011;49;48.530;9.200;2024-03-02T10:57:50;10.30;;;7.50;;
417;SDS011;49;48.530;9.200;2024-03-02T11:00:18;11.50;;;7.87;;
417;SDS011;49;48.530;9.200;2024-03-02T11:02:51;15.23;;;7.50;;
417;SDS011;49;48.530;9.200;2024-03-02T11:05:28;11.20;;;7.57;;
417;SDS011;49;48.530;9.200;2024-03-02T11:08:00;9.77;;;6.90;;
417;SDS011;49;48.530;9.200;2024-03-02T11:10:32;9.43;;;6.23;;
417;SDS011;49;48.530;9.200;2024-03-02T11:13:02;8.13;;;6.00;;
417;SDS011;49;48.530;9.200;2024-03-02T11:15:40;8.07;;;5.93;;
417;SDS011;49;48.530;9.200;2024-03-02T11:18:11;6.73;;;5.27;;
417;SDS011;49;48.530;9.200;2024-03-02T11:20:41;8.67;;;6.10;;
417;SDS011;49;48.530;9.200;2024-03-02T11:23:09;7.23;;;5.77;;
417;SDS011;49;48.530;9.200;2024-03-02T11:25:36;11.77;;;6.27;;
417;SDS011;49;48.530;9.200;2024-03-02T11:28:04;10.23;;;6.90;;
417;SDS011;49;48.530;9.200;2024-03-02T11:30:49;9.53;;;7.20;;
417;SDS011;49;48.530;9.200;2024-03-02T11:33:27;9.33;;;6.70;;
417;SDS011;49;48.530;9.200;2024-03-02T11:35:57;7.17;;;5.37;;
417;SDS011;49;48.530;9.200;2024-03-02T11:38:28;12.40;;;6.57;;
417;SDS011;49;48.530;9.200;2024-03-02T11:40:59;7.40;;;5.53;;
417;SDS011;49;48.530;9.200;2024-03-02T11:43:27;8.17;;;4.87;;
417;SDS011;49;48.530;9.200;2024-03-02T11:46:00;8.40;;;4.67;;
417;SDS011;49;48.530;9.200;2024-03-02T11:48:33;6.67;;;4.80;;
417;SDS011;49;48.530;9.200;2024-03-02T11:51:06;15.27;;;4.87;;
417;SDS011;49;48.530;9.200;2024-03-02T11:53:47;5.57;;;4.10;;
417;SDS011;49;48.530;9.200;2024-03-02T11:56:15;5.63;;;4.40;;
417;SDS011;49;48.530;9.200;2024-03-02T11:58:45;4.83;;;4.10;;
417;SDS011;49;48.530;9.200;2024-03-02T12:01:16;7.07;;;3.90;;
417;SDS011;49;48.530;9.200;2024-03-02T12:03:46;4.23;;;3.50;;
417;SDS011;49;48.530;9.200;2024-03-02T12:06:15;6.20;;;3.80;;
417;SDS011;49;48.530;9.200;2024-03-02T12:08:44;6.03;;;4.40;;
417;SDS011;49;48.530;9.200;2024-03-02T12:11:14;6.80;;;4.40;;
417;SDS011;49;48.530;9.200;2024-03-02T12:13:41;4.80;;;3.60;;
417;SDS011;49;48.530;9.200;2024-03-02T12:16:22;4.30;;;3.20;;
417;SDS011;49;48.530;9.200;2024-03-02T12:18:50;4.70;;;3.07;;
417;SDS011;49;48.530;9.200;2024-03-02T12:21:18;10.07;;;4.00;;
417;SDS011;49;48.530;9.200;2024-03-02T12:23:46;7.70;;;4.17;;
417;SDS011;49;48.530;9.200;2024-03-02T12:26:13;5.70;;;4.10;;
417;SDS011;49;48.530;9.200;2024-03-02T12:28:40;5.70;;;3.73;;
417;SDS011;49;48.530;9.200;2024-03-02T12:31:07;6.33;;;3.93;;
417;SDS011;49;48.530;9.200;2024-03-02T12:33:35;5.10;;;3.30;;
417;SDS011;49;48.530;9.200;2024-03-02T12:36:02;8.67;;;4.47;;
417;SDS011;49;48.530;9.200;2024-03-02T12:38:33;3.30;;;2.63;;
417;SDS011;49;48.530;9.200;2024-03-02T12:41:00;2.90;;;2.40;;
417;SDS011;49;48.530;9.200;2024-03-02T12:43:29;2.77;;;2.40;;
417;SDS011;49;48.530;9.200;2024-03-02T12:45:59;4.50;;;3.07;;
417;SDS011;49;48.530;9.200;2024-03-02T12:48:30;3.53;;;2.70;;
417;SDS011;49;48.530;9.200;2024-03-02T12:50:57;5.13;;;2.50;;
417;SDS011;49;48.530;9.200;2024-03-02T12:53:24;3.70;;;2.77;;
417;SDS011;49;48.530;9.200;2024-03-02T12:55:55;3.70;;;2.50;;
417;SDS011;49;48.530;9.200;2024-03-02T12:58:23;3.30;;;2.60;;
417;SDS011;49;48.530;9.200;2024-03-02T13:01:05;5.37;;;2.93;;
417;SDS011;49;48.530;9.200;2024-03-02T13:03:34;2.83;;;2.47;;
417;SDS011;49;48.530;9.200;2024-03-02T13:06:02;2.70;;;2.40;;
417;SDS011;49;48.530;9.200;2024-03-02T13:08:32;3.47;;;2.30;;
417;SDS011;49;48.530;9.200;2024-03-02T13:11:01;4.33;;;2.50;;
417;SDS011;49;48.530;9.200;2024-03-02T13:13:32;2.97;;;2.70;;
417;SDS011;49;48.530;9.200;2024-03-02T13:16:00;2.27;;;2.00;;
417;SDS011;49;48.530;9.200;2024-03-02T13:18:28;2.70;;;2.23;;
417;SDS011;49;48.530;9.200;2024-03-02T13:20:56;2.43;;;2.27;;
417;SDS011;49;48.530;9.200;2024-03-02T13:23:23;3.90;;;2.33;;
417;SDS011;49;48.530;9.200;2024-03-02T13:25:52;2.90;;;2.30;;
417;SDS011;49;48.530;9.200;2024-03-02T13:28:20;4.73;;;2.40;;
417;SDS011;49;48.530;9.200;2024-03-02T13:30:47;3.83;;;2.57;;
417;SDS011;49;48.530;9.200;2024-03-02T13:33:14;3.67;;;2.27;;
417;SDS011;49;48.530;9.200;2024-03-02T13:35:46;2.70;;;2.00;;
417;SDS011;49;48.530;9.200;2024-03-02T13:38:13;2.93;;;2.50;;
417;SDS011;49;48.530;9.200;2024-03-02T13:40:41;2.23;;;2.10;;
417;SDS011;49;48.530;9.200;2024-03-02T13:43:08;2.70;;;2.23;;
417;SDS011;49;48.530;9.200;2024-03-02T13:45:37;2.40;;;2.20;;
417;SDS011;49;48.530;9.200;2024-03-02T13:48:04;3.40;;;2.17;;
417;SDS011;49;48.530;9.200;2024-03-02T13:50:31;3.30;;;2.40;;
417;SDS011;49;48.530;9.200;2024-03-02T13:52:59;3.60;;;2.53;;
417;SDS011;49;48.530;9.200;2024-03-02T13:55:34;3.03;;;2.43;;
417;SDS011;49;48.530;9.200;2024-03-02T13:58:01;2.43;;;2.00;;
417;SDS011;49;48.530;9.200;2024-03-02T14:00:28;2.90;;;2.30;;
417;SDS011;49;48.530;9.200;2024-03-02T14:02:57;3.37;;;2.30;;
417;SDS011;49;48.530;9.200;2024-03-02T14:05:25;3.57;;;2.40;;
417;SDS011;49;48.530;9.200;2024-03-02T14:07:53;3.40;;;2.40;;
417;SDS011;49;48.530;9.200;2024-03-02T14:10:23;4.63;;;2.30;;
417;SDS011;49;48.530;9.200;2024-03-02T14:12:51;2.80;;;2.17;;
417;SDS011;49;48.530;9.200;2024-03-02T14:15:20;2.87;;;2.47;;
417;SDS011;49;48.530;9.200;2024-03-02T14:17:48;2.27;;;2.07;;
417;SDS011;49;48.530;9.200;2024-03-02T14:20:18;2.87;;;2.33;;
417;SDS011;49;48.530;9.200;2024-03-02T14:22:47;3.53;;;2.40;;
417;SDS011;49;48.530;9.200;2024-03-02T14:25:16;2.47;;;2.30;;
417;SDS011;49;48.530;9.200;2024-03-02T14:27:44;4.97;;;4.30;;
417;SDS011;49;48.530;9.200;2024-03-02T14:30:12;2.47;;;2.20;;
417;SDS011;49;48.530;9.200;2024-03-02T14:32:40;2.00;;;1.93;;
417;SDS011;49;48.530;9.200;2024-03-02T14:35:08;2.70;;;2.30;;
417;SDS011;49;48.530;9.200;2024-03-02T14:37:38;4.67;;;2.37;;
417;SDS011;49;48.530;9.200;2024-03-02T14:40:07;3.20;;;2.70;;
417;SDS011;49;48.530;9.200;2024-03-02T14:42:37;3.80;;;2.80;;
417;SDS011;49;48.530;9.200;2024-03-02T14:45:12;3.27;;;2.77;;
417;SDS011;49;48.530;9.200;2024-03-02T14:47:41;4.03;;;2.40;;
417;SDS011;49;48.530;9.200;2024-03-02T14:50:09;3.17;;;2.40;;
417;SDS011;49;48.530;9.200;2024-03-02T14:52:43;3.23;;;2.70;;
417;SDS011;49;48.530;9.200;2024-03-02T14:55:10;3.70;;;2.70;;
417;SDS011;49;48.530;9.200;2024-03-02T14:57:38;2.70;;;2.40;;
417;SDS011;49;48.530;9.200;2024-03-02T15:00:05;3.60;;;2.33;;
417;SDS011;49;48.530;9.200;2024-03-02T15:02:36;3.80;;;2.70;;
417;SDS011;49;48.530;9.200;2024-03-02T15:05:04;3.37;;;2.50;;
417;SDS011;49;48.530;9.200;2024-03-02T15:07:32;5.33;;;3.27;;
417;SDS011;49;48.530;9.200;2024-03-02T15:10:01;6.93;;;3.60;;
417;SDS011;49;48.530;9.200;2024-03-02T15:12:29;3.33;;;2.97;;
417;SDS011;49;48.530;9.200;2024-03-02T15:14:56;4.27;;;2.93;;
417;SDS011;49;48.530;9.200;2024-03-02T15:17:24;3.90;;;2.77;;
417;SDS011;49;48.530;9.200;2024-03-02T15:19:51;6.33;;;3.53;;
417;SDS011;49;48.530;9.200;2024-03-02T15:22:19;4.10;;;3.40;;
417;SDS011;49;48.530;9.200;2024-03-02T15:24:45;6.50;;;3.57;;
417;SDS011;49;48.530;9.200;2024-03-02T15:27:14;6.57;;;2.90;;
417;SDS011;49;48.530;9.200;2024-03-02T15:29:41;3.47;;;2.60;;
417;SDS011;49;48.530;9.200;2024-03-02T15:32:08;2.37;;;2.20;;
417;SDS011;49;48.530;9.200;2024-03-02T15:34:35;5.63;;;2.23;;
417;SDS011;49;48.530;9.200;2024-03-02T15:37:03;3.40;;;2.57;;
417;SDS011;49;48.530;9.200;2024-03-02T15:39:32;3.27;;;2.47;;
417;SDS011;49;48.530;9.200;2024-03-02T15:42:14;3.90;;;2.97;;
417;SDS011;49;48.530;9.200;2024-03-02T15:44:42;4.07;;;2.73;;
417;SDS011;49;48.530;9.200;2024-03-02T15:47:10;3.63;;;2.60;;
417;SDS011;49;48.530;9.200;2024-03-02T15:49:37;2.60;;;2.33;;
417;SDS011;49;48.530;9.200;2024-03-02T15:52:04;3.37;;;2.40;;
417;SDS011;49;48.530;9.200;2024-03-02T15:54:31;3.70;;;2.87;;